createdAt,value
2023-03-26T00:15:40.392Z,439
2023-03-26T00:35:40.601Z,431
2023-03-26T00:55:40.556Z,409
2023-03-26T01:15:40.548Z,408
2023-03-26T01:55:40.492Z,408
2023-03-26T02:15:40.488Z,404
2023-03-26T02:35:40.532Z,388
2023-03-26T02:55:40.429Z,426
2023-03-26T03:15:39.946Z,429
2023-03-26T03:35:40.437Z,434
2023-03-26T03:55:39.869Z,424
2023-03-26T04:15:39.876Z,441
2023-03-26T04:35:40.151Z,461
2023-03-26T04:55:40.115Z,458
2023-03-26T05:15:39.792Z,453
2023-03-26T05:35:40.308Z,460
2023-03-26T05:55:40.269Z,443
2023-03-26T06:15:40.247Z,448
2023-03-26T06:35:40.100Z,444
2023-03-26T06:55:40.052Z,432
2023-03-26T07:15:39.717Z,431
2023-03-26T07:35:39.728Z,440
2023-03-26T07:55:40.182Z,428
2023-03-26T08:15:40.155Z,436
2023-03-26T08:35:40.147Z,435
2023-03-26T08:55:40.080Z,434
2023-03-26T09:15:40.072Z,434
2023-03-26T09:35:40.075Z,430
2023-03-26T09:55:40.052Z,435
2023-03-26T10:15:40.010Z,496
2023-03-26T10:35:40.110Z,529
2023-03-26T10:55:40.145Z,536
2023-03-26T11:15:39.973Z,518
2023-03-26T11:55:39.918Z,515
2023-03-26T12:15:39.869Z,509
2023-03-26T12:35:39.912Z,525
2023-03-26T12:55:39.661Z,515
2023-03-26T13:15:39.834Z,507
2023-03-26T13:35:39.319Z,499
2023-03-26T13:55:39.809Z,513
2023-03-26T14:15:39.793Z,507
2023-03-26T14:35:39.818Z,506
2023-03-26T14:55:39.718Z,496
2023-03-26T15:15:39.714Z,496
2023-03-26T15:35:39.705Z,481
2023-03-26T15:55:39.671Z,511
2023-03-26T16:15:39.678Z,495
2023-03-26T16:35:39.633Z,523
2023-03-26T16:55:39.620Z,492
2023-03-26T17:15:39.600Z,474
2023-03-26T17:35:39.570Z,479
2023-03-26T17:55:39.548Z,471
2023-03-26T18:15:39.524Z,460
2023-03-26T18:35:39.541Z,466
2023-03-26T18:55:39.800Z,454
2023-03-26T19:15:39.443Z,459
2023-03-26T19:35:38.964Z,460
2023-03-26T19:55:39.453Z,454
2023-03-26T20:15:39.430Z,444
2023-03-26T20:35:38.892Z,445
2023-03-26T20:55:39.384Z,450
2023-03-26T21:15:39.327Z,432
2023-03-26T21:35:39.401Z,445
2023-03-26T21:55:39.329Z,437
2023-03-26T22:15:39.118Z,436
2023-03-26T22:35:39.313Z,427
2023-03-26T22:55:39.249Z,424
2023-03-26T23:15:39.231Z,430
2023-03-26T23:35:39.275Z,427
2023-03-26T23:55:39.244Z,419
